Flight Track Log - Related Links

Times and Time Zones

All times are in EDT time to prevent confusion due to time zone crossing. See the N317FL flight status page for this flight to view local times or setup timezone preferences in your user account.

Time Position Orientation Groundspeed Altitude Reporting Facility
EDT Latitude Longitude Course Direction KTS MPH feet Rate Location/Type
Fri 03:44:00 PM 30.2106 -97.7284 225° Southwest  Level FlightAware Approximate
Fri 03:44:09 PM 30.0779 -97.9191 225° Southwest 299 344 19,500  Level FlightAware ADS-B
Fri 03:44:40 PM 30.0463 -97.9531 223° Southwest 306 352 20,700 2,372 Climbing FlightAware ADS-B
Fri 03:44:52 PM 30.0345 -97.9671 226° Southwest 301 346 21,200 2,700 Climbing FlightAware ADS-B
Fri 03:45:20 PM 30.0087 -98.0010 229° Southwest 297 342 22,500 2,710 Climbing FlightAware ADS-B
Fri 03:45:23 PM 30.0057 -98.0049 228° Southwest 296 341 22,600 2,727 Climbing FlightAware ADS-B
Fri 03:45:53 PM 29.9785 -98.0399 228° Southwest 290 334 24,000 2,690 Climbing FlightAware ADS-B
Fri 03:46:21 PM 29.9536 -98.0716 228° Southwest 290 334 25,200 2,516 Climbing FlightAware ADS-B
Fri 03:46:24 PM 29.9506 -98.0753 227° Southwest 292 336 25,300 2,182 Climbing FlightAware ADS-B
Fri 03:46:54 PM 29.9230 -98.1103 228° Southwest 297 342 26,400 2,066 Climbing FlightAware ADS-B
Fri 03:47:25 PM 29.8940 -98.1471 228° Southwest 305 351 27,400 1,869 Climbing FlightAware ADS-B
Fri 03:47:55 PM 29.8649 -98.1839 228° Southwest 315 362 28,300 1,814 Climbing FlightAware ADS-B
Fri 03:48:08 PM 29.8516 -98.1995 225° Southwest 322 371 28,700 2,400 Climbing FlightAware ADS-B
Fri 03:48:15 PM 29.8434 -98.2065 217° Southwest 326 375 29,100 3,375 Climbing FlightAware ADS-B
Fri 03:48:24 PM 29.8311 -98.2148 210° Southwest 329 379 29,600 3,429 Climbing FlightAware ADS-B
Fri 03:48:29 PM 29.8237 -98.2186 204° Southwest 333 383 29,900 3,231 Climbing FlightAware ADS-B
Fri 03:48:37 PM 29.8127 -98.2227 198° South 337 388 30,300 3,000 Climbing FlightAware ADS-B
Fri 03:48:43 PM 29.8024 -98.2254 193° South 343 395 30,600 3,231 Climbing FlightAware ADS-B
Fri 03:48:50 PM 29.7911 -98.2270 187° South 348 400 31,000 2,500 Climbing FlightAware ADS-B
Fri 03:48:55 PM 29.7838 -98.2273 182° South 352 405 31,100 2,229 Climbing FlightAware ADS-B
Fri 03:49:25 PM 29.7337 -98.2244 177° South 357 411 32,300 2,262 Climbing FlightAware ADS-B
Fri 03:49:56 PM 29.6827 -98.2204 176° South 355 409 33,400 2,167 Climbing FlightAware ADS-B
Fri 03:50:37 PM 29.6167 -98.2139 175° South 351 404 34,900 2,028 Climbing FlightAware ADS-B
Fri 03:51:07 PM 29.5686 -98.2082 174° South 349 402 35,800 1,765 Climbing FlightAware ADS-B
Fri 03:51:11 PM 29.5620 -98.2074 174° South 350 403 35,900 1,800 Climbing FlightAware ADS-B
Fri 03:51:37 PM 29.5204 -98.2023 174° South 347 399 36,700 1,636 Climbing FlightAware ADS-B
Fri 03:51:55 PM 29.4920 -98.1988 174° South 346 398 37,100 1,375 Climbing FlightAware ADS-B
Fri 03:52:25 PM 29.4439 -98.1929 174° South 349 402 37,800 1,231 Climbing FlightAware ADS-B
Fri 03:52:34 PM 29.4294 -98.1913 175° South 351 404 37,900 706 Climbing FlightAware ADS-B
Fri 03:52:42 PM 29.4148 -98.1898 175° South 350 403 38,000 857 Climbing FlightAware ADS-B
Fri 03:52:48 PM 29.4057 -98.1896 179° South 344 396 38,100 600 Climbing FlightAware ADS-B
Fri 03:52:52 PM 29.3991 -98.1901 184° South 342 394 38,100  Level FlightAware ADS-B
Fri 03:52:59 PM 29.3891 -98.1915 187° South 336 387 38,100 375 Level FlightAware ADS-B
Fri 03:53:08 PM 29.3750 -98.1953 193° South 331 381 38,200 444 Climbing FlightAware ADS-B
Fri 03:53:26 PM 29.3499 -98.2070 202° Southwest 322 371 38,300 207 Climbing FlightAware ADS-B
Fri 03:53:37 PM 29.3363 -98.2161 210° Southwest 321 369 38,300 176 Level FlightAware ADS-B
Fri 03:54:00 PM 29.3061 -98.2372 211° Southwest 335 386 38,400 316 Climbing FlightAware ADS-B
Fri 03:54:34 PM 29.2601 -98.2699 212° Southwest 344 396 38,600 761 Climbing FlightAware ADS-B
Fri 03:55:11 PM 29.2111 -98.3059 213° Southwest 344 396 39,300 1,130 Climbing FlightAware ADS-B
Fri 03:55:43 PM 29.1681 -98.3372 212° Southwest 340 391 39,900 1,161 Climbing FlightAware ADS-B
Fri 03:56:13 PM 29.1278 -98.3664 212° Southwest 336 387 40,500 1,258 Climbing FlightAware ADS-B
Fri 03:56:45 PM 29.0860 -98.3966 212° Southwest 330 380 41,200 1,182 Climbing FlightAware ADS-B
Fri 03:57:19 PM 29.0428 -98.4278 212° Southwest 325 374 41,800 1,108 Climbing FlightAware ADS-B
Fri 03:57:50 PM 29.0033 -98.4562 212° Southwest 318 366 42,400 1,125 Climbing FlightAware ADS-B
Fri 03:58:23 PM 28.9625 -98.4856 212° Southwest 313 360 43,000 563 Climbing FlightAware ADS-B
Fri 03:58:54 PM 28.9249 -98.5129 212° Southwest 322 371 43,000  Level FlightAware ADS-B
Fri 03:59:25 PM 28.8842 -98.5424 212° Southwest 334 384 43,000  Level FlightAware ADS-B
Fri 03:59:57 PM 28.8424 -98.5725 212° Southwest 344 396 43,000  Level FlightAware ADS-B
Fri 04:00:27 PM 28.8008 -98.6023 212° Southwest 350 403 43,000  Level FlightAware ADS-B
Fri 04:01:02 PM 28.7519 -98.6374 212° Southwest 360 414 43,000  Level FlightAware ADS-B
Fri 04:01:33 PM 28.7080 -98.6688 212° Southwest 368 423 43,000  Level FlightAware ADS-B
Fri 04:02:08 PM 28.6564 -98.7057 212° Southwest 373 429 43,000  Level FlightAware ADS-B
Fri 04:02:41 PM 28.6076 -98.7406 212° Southwest 374 430 43,000  Level FlightAware ADS-B
Fri 04:03:12 PM 28.5618 -98.7732 212° Southwest 373 429 43,000  Level FlightAware ADS-B
Fri 04:03:43 PM 28.5169 -98.8052 212° Southwest 373 429 43,000  Level FlightAware ADS-B
Fri 04:04:16 PM 28.4681 -98.8400 212° Southwest 373 429 43,000  Level FlightAware ADS-B
Fri 04:04:47 PM 28.4236 -98.8717 212° Southwest 373 429 43,000  Level FlightAware ADS-B
Fri 04:05:18 PM 28.3781 -98.9040 212° Southwest 372 428 43,000  Level FlightAware ADS-B
Fri 04:06:10 PM 28.3013 -98.9586 212° Southwest 371 427 43,000  Level FlightAware ADS-B
Fri 04:06:51 PM 28.2418 -99.0008 212° Southwest 371 427 43,000  Level FlightAware ADS-B
Fri 04:07:22 PM 28.1966 -99.0329 212° Southwest 371 427 43,000  Level FlightAware ADS-B
Fri 04:07:52 PM 28.1590 -99.0590 211° Southwest 370 426 43,000  Level FlightAware ADS-B
Fri 04:08:32 PM 28.1000 -99.1010 212° Southwest 370 426 43,000  Level FlightAware ADS-B
Fri 04:09:17 PM 28.0310 -99.1500 212° Southwest 371 427 43,000  Level FlightAware ADS-B
Fri 04:09:57 PM 27.9730 -99.1910 212° Southwest 372 428 43,000  Level FlightAware ADS-B
Fri 04:10:42 PM 27.9090 -99.2360 212° Southwest 373 429 43,000  Level FlightAware ADS-B
Fri 04:11:22 PM 27.8490 -99.2780 212° Southwest 374 430 43,000  Level FlightAware ADS-B
Fri 04:12:02 PM 27.7910 -99.3190 212° Southwest 374 430 43,000  Level FlightAware ADS-B
Fri 04:12:47 PM 27.7220 -99.3670 212° Southwest 373 429 43,000  Level FlightAware ADS-B
Fri 04:13:27 PM 27.6630 -99.4080 212° Southwest 373 429 43,000  Level FlightAware ADS-B
Fri 04:14:07 PM 27.6110 -99.4440 212° Southwest 373 429 43,000  Level FlightAware ADS-B
Fri 04:14:47 PM 27.5610 -99.4780 211° Southwest 373 429 43,000  Level FlightAware ADS-B
Fri 04:15:27 PM 27.5100 -99.5120 211° Southwest 373 429 43,000  Level FlightAware ADS-B
Fri 04:16:17 PM 27.4470 -99.5550 211° Southwest 373 429 43,000  Level FlightAware ADS-B
Fri 04:16:54 PM 27.4010 -99.5870 212° Southwest 373 429 43,000  Level FlightAware ADS-B
Fri 04:17:38 PM 27.3460 -99.6240 211° Southwest 373 429 43,000  Level FlightAware ADS-B
Fri 04:18:18 PM 27.2950 -99.6580 211° Southwest 373 429 43,000  Level FlightAware ADS-B
Fri 04:18:58 PM 27.2450 -99.6920 211° Southwest 373 429 43,000  Level FlightAware ADS-B
Fri 04:19:38 PM 27.1950 -99.7260 211° Southwest 373 429 43,000  Level FlightAware ADS-B
Fri 04:20:28 PM 27.1320 -99.7680 211° Southwest 373 429 43,000  Level FlightAware ADS-B
Fri 04:21:08 PM 27.0820 -99.8020 211° Southwest 373 429 43,000  Level FlightAware ADS-B
Fri 04:21:48 PM 27.0310 -99.8360 211° Southwest 373 429 43,000  Level FlightAware ADS-B
Fri 04:22:28 PM 26.9810 -99.8700 211° Southwest 373 429 43,000  Level FlightAware ADS-B
Fri 04:23:08 PM 26.9310 -99.9040 211° Southwest 373 429 43,000 48 Level FlightAware ADS-B
Fri 04:25:00 PM 26.8677 -100.0843 249° West  Level Estimated
Fri 04:26:00 PM 26.8337 -100.1807 248° West  Level Estimated
Fri 04:27:00 PM 26.7996 -100.2772 248° West  Level Estimated
Fri 04:28:00 PM 26.7654 -100.3736 248° West  Level Estimated
Fri 04:29:00 PM 26.7312 -100.4699 248° West  Level Estimated
Fri 04:30:00 PM 26.6969 -100.5661 248° West  Level Estimated
Fri 04:31:00 PM 26.6626 -100.6623 248° West  Level Estimated
Fri 04:32:00 PM 26.6282 -100.7585 248° West  Level Estimated
Fri 04:33:00 PM 26.5937 -100.8545 248° West  Level Estimated
Fri 04:34:00 PM 26.5592 -100.9506 248° West  Level Estimated
Fri 04:35:00 PM 26.5246 -101.0465 248° West  Level Estimated
Fri 04:36:00 PM 26.4899 -101.1424 248° West  Level Estimated
Fri 04:37:00 PM 26.4552 -101.2383 248° West  Level Estimated
Fri 04:38:00 PM 26.4204 -101.3341 248° West  Level Estimated
Fri 04:39:00 PM 26.3855 -101.4298 248° West  Level Estimated
Fri 04:40:00 PM 26.3506 -101.5255 248° West  Level Estimated
Fri 04:41:00 PM 26.3156 -101.6211 248° West  Level Estimated
Fri 04:42:00 PM 26.2806 -101.7167 248° West  Level Estimated
Fri 04:43:00 PM 26.2455 -101.8122 248° West  Level Estimated
Fri 04:44:00 PM 26.2103 -101.9076 248° West  Level Estimated
Fri 04:45:00 PM 26.1751 -102.0030 248° West  Level Estimated
Fri 04:46:00 PM 26.1397 -102.0983 248° West  Level Estimated
Fri 04:47:00 PM 26.1044 -102.1936 248° West  Level Estimated
Fri 04:48:00 PM 26.0690 -102.2888 248° West  Level Estimated
Fri 04:49:00 PM 26.0335 -102.3840 247° West  Level Estimated
Fri 04:50:00 PM 25.9979 -102.4791 247° West  Level Estimated
Fri 04:51:00 PM 25.9623 -102.5741 247° West  Level Estimated
Fri 04:52:00 PM 25.9266 -102.6691 247° West  Level Estimated
Fri 04:53:00 PM 25.8909 -102.7640 247° West  Level Estimated
Fri 04:54:00 PM 25.8551 -102.8589 247° West  Level Estimated
Fri 04:55:00 PM 25.8192 -102.9537 247° West  Level Estimated
Fri 04:56:00 PM 25.7833 -103.0485 247° West  Level Estimated
Fri 04:57:00 PM 25.7473 -103.1432 247° West  Level Estimated
Fri 04:58:00 PM 25.7113 -103.2378 247° West  Level Estimated
Fri 04:59:00 PM 25.6752 -103.3324 247° West  Level Estimated
Fri 05:00:00 PM 25.6390 -103.4269 247° West  Level Estimated
Fri 05:01:00 PM 25.6028 -103.5214 247° West  Level Estimated
Fri 05:02:00 PM 25.5665 -103.6158 247° West  Level Estimated
Fri 05:03:00 PM 25.5301 -103.7101 247° West  Level Estimated
Fri 05:03:53 PM 25.6390 -104.2220 247° West 337 388 45,000  Level FlightAware ADS-B
Fri 05:04:00 PM 25.4937 -103.8044 247° West  Level Estimated
Fri 05:04:33 PM 25.6110 -104.2830 243° Southwest 338 389 45,000  Level FlightAware ADS-B
Fri 05:05:18 PM 25.5780 -104.3540 243° Southwest 338 389 45,000  Level FlightAware ADS-B
Fri 05:05:58 PM 25.5490 -104.4150 242° Southwest 338 389 45,000  Level FlightAware ADS-B
Fri 05:06:43 PM 25.5180 -104.4830 243° Southwest 338 389 45,000  Level FlightAware ADS-B
Fri 05:07:23 PM 25.4900 -104.5440 243° Southwest 338 389 45,000  Level FlightAware ADS-B
Fri 05:08:08 PM 25.4560 -104.6150 242° Southwest 338 389 45,000  Level FlightAware ADS-B
Fri 05:08:43 PM 25.4330 -104.6660 243° Southwest 339 390 45,000  Level FlightAware ADS-B
Fri 05:09:28 PM 25.4000 -104.7370 243° Southwest 339 390 45,000  Level FlightAware ADS-B
Fri 05:10:13 PM 25.3670 -104.8060 242° Southwest 339 390 45,000  Level FlightAware ADS-B
Fri 05:10:53 PM 25.3380 -104.8690 243° Southwest 339 390 45,000  Level FlightAware ADS-B
Fri 05:11:38 PM 25.3120 -104.9430 249° West 337 388 45,000  Level FlightAware ADS-B
Fri 05:12:18 PM 25.3010 -105.0100 260° West 338 389 45,000  Level FlightAware ADS-B
Fri 05:12:58 PM 25.2900 -105.0780 260° West 340 391 45,000  Level FlightAware ADS-B
Fri 05:13:38 PM 25.2700 -105.1440 251° West 343 395 45,000  Level FlightAware ADS-B
Fri 05:14:23 PM 25.2400 -105.2150 245° Southwest 343 395 45,000  Level FlightAware ADS-B
Fri 05:15:03 PM 25.2140 -105.2770 245° Southwest 344 396 45,000  Level FlightAware ADS-B
Fri 05:15:48 PM 25.1830 -105.3520 245° Southwest 344 396 45,000  Level FlightAware ADS-B
Fri 05:16:28 PM 25.1560 -105.4150 245° Southwest 345 397 45,000  Level FlightAware ADS-B
Fri 05:17:13 PM 25.1260 -105.4850 245° Southwest 346 398 45,000  Level FlightAware ADS-B
Fri 05:17:53 PM 25.0990 -105.5490 245° Southwest 346 398 45,000  Level FlightAware ADS-B
Fri 05:18:38 PM 25.0690 -105.6200 245° Southwest 346 398 45,000  Level FlightAware ADS-B
Fri 05:19:18 PM 25.0400 -105.6880 245° Southwest 347 399 45,000  Level FlightAware ADS-B
Fri 05:19:58 PM 25.0130 -105.7510 245° Southwest 347 399 45,000  Level FlightAware ADS-B
Fri 05:20:43 PM 24.9820 -105.8230 245° Southwest 348 400 45,000  Level FlightAware ADS-B
Fri 05:21:23 PM 24.9550 -105.8860 245° Southwest 348 400 45,000  Level FlightAware ADS-B
Fri 05:22:03 PM 24.9280 -105.9500 245° Southwest 348 400 45,000  Level FlightAware ADS-B
Fri 05:22:48 PM 24.8960 -106.0250 245° Southwest 348 400 45,000  Level FlightAware ADS-B
Fri 05:23:28 PM 24.8690 -106.0880 245° Southwest 348 400 45,000  Level FlightAware ADS-B
Fri 05:24:13 PM 24.8380 -106.1600 245° Southwest 350 403 45,000  Level FlightAware ADS-B
Fri 05:24:53 PM 24.8100 -106.2240 244° Southwest 351 404 45,000  Level FlightAware ADS-B
Fri 05:25:33 PM 24.7820 -106.2890 245° Southwest 351 404 45,000  Level FlightAware ADS-B
Fri 05:26:18 PM 24.7500 -106.3640 245° Southwest 352 405 45,000  Level FlightAware ADS-B
Fri 05:26:58 PM 24.7220 -106.4280 244° Southwest 352 405 45,000  Level FlightAware ADS-B
Fri 05:27:43 PM 24.6910 -106.5000 245° Southwest 353 406 45,000  Level FlightAware ADS-B
Fri 05:28:23 PM 24.6630 -106.5630 244° Southwest 354 407 45,000  Level FlightAware ADS-B
Fri 05:29:03 PM 24.6340 -106.6300 245° Southwest 354 407 45,000  Level FlightAware ADS-B
Fri 05:29:48 PM 24.6020 -106.7030 244° Southwest 355 409 45,000  Level FlightAware ADS-B
Fri 05:30:28 PM 24.5730 -106.7700 245° Southwest 355 409 45,000  Level FlightAware ADS-B
Fri 05:31:13 PM 24.5420 -106.8410 244° Southwest 355 409 45,000  Level FlightAware ADS-B
Fri 05:31:53 PM 24.5140 -106.9060 245° Southwest 355 409 45,000  Level FlightAware ADS-B
Fri 05:32:33 PM 24.4850 -106.9710 244° Southwest 356 410 45,000  Level FlightAware ADS-B
Fri 05:33:13 PM 24.4570 -107.0360 245° Southwest 356 410 45,000  Level FlightAware ADS-B
Fri 05:33:58 PM 24.4250 -107.1090 244° Southwest 356 410 45,000  Level FlightAware ADS-B
Fri 05:34:38 PM 24.3950 -107.1760 244° Southwest 356 410 45,000  Level FlightAware ADS-B
Fri 05:35:23 PM 24.3630 -107.2490 244° Southwest 356 410 45,000  Level FlightAware ADS-B
Fri 05:36:03 PM 24.3340 -107.3150 244° Southwest 357 411 45,000  Level FlightAware ADS-B
Fri 05:36:43 PM 24.3050 -107.3800 244° Southwest 357 411 45,000  Level FlightAware ADS-B
Fri 05:37:28 PM 24.2730 -107.4520 244° Southwest 357 411 45,000  Level FlightAware ADS-B
Fri 05:38:08 PM 24.2440 -107.5170 244° Southwest 358 412 45,000  Level FlightAware ADS-B
Fri 05:38:53 PM 24.2110 -107.5920 244° Southwest 358 412 45,000  Level FlightAware ADS-B
Fri 05:39:33 PM 24.1820 -107.6570 244° Southwest 359 413 45,000  Level FlightAware ADS-B
Fri 05:40:13 PM 24.1530 -107.7220 244° Southwest 360 414 45,000  Level FlightAware ADS-B
Fri 05:40:58 PM 24.1200 -107.7950 244° Southwest 360 414 45,000  Level FlightAware ADS-B
Fri 05:41:33 PM 24.0940 -107.8540 244° Southwest 360 414 45,000  Level FlightAware ADS-B
Fri 05:42:13 PM 24.0650 -107.9180 244° Southwest 360 414 45,000  Level FlightAware ADS-B
Fri 05:42:53 PM 24.0350 -107.9850 244° Southwest 359 413 45,000 -353 Level FlightAware ADS-B
Fri 05:43:38 PM 24.0030 -108.0570 244° Southwest 366 421 44,500 -918 Descending FlightAware ADS-B
Fri 05:44:18 PM 23.9730 -108.1240 244° Southwest 373 429 43,700 -1,267 Descending FlightAware ADS-B
Fri 05:45:08 PM 23.9350 -108.2080 244° Southwest 359 413 42,600 -1,267 Descending FlightAware ADS-B
Fri 05:45:48 PM 23.9070 -108.2710 244° Southwest 343 395 41,800 -1,271 Descending FlightAware ADS-B
Fri 05:46:33 PM 23.8740 -108.3440 244° Southwest 348 400 40,800 -1,341 Descending FlightAware ADS-B
Fri 05:47:13 PM 23.8460 -108.4060 244° Southwest 350 403 39,900 -1,350 Descending FlightAware ADS-B
Fri 05:47:53 PM 23.8160 -108.4720 244° Southwest 355 409 39,000 -1,275 Descending FlightAware ADS-B
Fri 05:48:33 PM 23.7870 -108.5360 244° Southwest 360 414 38,200 -1,200 Descending FlightAware ADS-B
Fri 05:49:18 PM 23.7550 -108.6070 244° Southwest 371 427 37,300 -1,129 Descending FlightAware ADS-B
Fri 05:49:58 PM 23.7240 -108.6750 244° Southwest 364 419 36,600 -1,906 Descending FlightAware ADS-B
Fri 05:50:43 PM 23.6880 -108.7530 243° Southwest 397 457 34,600 -2,753 Descending FlightAware ADS-B
Fri 05:51:23 PM 23.6550 -108.8260 244° Southwest 381 438 32,700 -2,775 Descending FlightAware ADS-B
Fri 05:52:03 PM 23.6240 -108.8930 243° Southwest 377 434 30,900 -2,682 Descending FlightAware ADS-B
Fri 05:52:48 PM 23.5880 -108.9720 244° Southwest 401 461 28,900 -2,753 Descending FlightAware ADS-B
Fri 05:53:28 PM 23.5560 -109.0430 244° Southwest 408 470 27,000 -2,965 Descending FlightAware ADS-B
Fri 05:54:13 PM 23.5160 -109.1300 243° Southwest 403 464 24,700 -2,894 Descending FlightAware ADS-B
Fri 05:54:53 PM 23.4840 -109.2000 244° Southwest 393 452 22,900 -2,700 Descending FlightAware ADS-B
Fri 05:55:33 PM 23.4510 -109.2700 243° Southwest 385 443 21,100 -2,625 Descending FlightAware ADS-B
Fri 05:56:13 PM 23.4220 -109.3340 244° Southwest 382 440 19,400 -2,040 Descending FlightAware ADS-B
Fri 05:57:13 PM 23.3640 -109.4250 235° Southwest 365 420 17,700 -1,020 Descending FlightAware ADS-B
Fri 05:57:53 PM 23.3280 -109.4740 231° Southwest 365 420 17,700  Level FlightAware ADS-B
Fri 05:58:33 PM 23.2920 -109.5230 231° Southwest 365 420 17,700  Level FlightAware ADS-B
Fri 05:59:13 PM 23.2560 -109.5710 231° Southwest 365 420 17,700  Level FlightAware ADS-B
Fri 06:00:03 PM 23.2110 -109.6320 231° Southwest 365 420 17,700  Level FlightAware ADS-B
Fri 06:00:43 PM 23.1750 -109.6800 231° Southwest 365 420 17,700  Level FlightAware ADS-B
Fri 06:03:00 PM 23.0210 -109.8388 231° Southwest  Level FlightAware Approximate
Fri 06:04:00 PM 22.9563 -109.9104 223° Southwest  Level FlightAware Approximate
Fri 06:05:00 PM 22.9333 -109.9333 223° Southwest  Level FlightAware Approximate
Fri 06:06:00 PM 22.9485 -109.9387 223° Southwest  Level Estimated
Fri 06:07:00 PM 22.9485 -109.9387 223° Southwest  Level Estimated
Fri 06:08:00 PM 22.9485 -109.9387 223° Southwest  Level Estimated
Fri 06:09:00 PM 22.9485 -109.9387 223° Southwest  Level Estimated
Fri 06:10:00 PM 22.9485 -109.9387 223° Southwest  Level Estimated
Fri 06:11:00 PM 22.9485 -109.9387 223° Southwest  Level Estimated
Fri 06:12:00 PM 22.9485 -109.9387 223° Southwest  Level Estimated
Fri 06:13:00 PM 22.9485 -109.9387 223° Southwest  Level Estimated
Fri 06:14:00 PM 22.9485 -109.9387 223° Southwest  Level Estimated
Fri 06:15:00 PM 22.9485 -109.9387 223° Southwest  Level Estimated
Fri 06:16:00 PM 22.9485 -109.9387 223° Southwest  Level Estimated
Fri 06:17:00 PM 22.9485 -109.9387 223° Southwest  Level Estimated
Fri 06:18:00 PM 22.9485 -109.9387 223° Southwest  Level Estimated
Fri 06:19:00 PM 22.9485 -109.9387 223° Southwest  Level Estimated
Fri 06:20:00 PM 22.9485 -109.9387 223° Southwest  Level Estimated
Fri 06:21:00 PM 22.9485 -109.9387 223° Southwest  Level Estimated
Fri 06:22:00 PM 22.9485 -109.9387 223° Southwest  Level Estimated
Fri 06:23:00 PM 22.9485 -109.9387 223° Southwest  Level Estimated
Fri 06:24:00 PM 22.9485 -109.9387 223° Southwest  Level Estimated
Fri 06:25:00 PM 22.9485 -109.9387 223° Southwest  Level Estimated
Fri 06:26:00 PM 22.9485 -109.9387 223° Southwest  Level Estimated
Fri 06:27:00 PM 22.9485 -109.9387 223° Southwest  Level Estimated
Fri 06:28:00 PM 22.9485 -109.9387 223° Southwest  Level Estimated
Fri 06:29:00 PM 22.9485 -109.9387 223° Southwest  Level Estimated
Fri 06:30:00 PM 22.9485 -109.9387 223° Southwest  Level Estimated
Fri 06:31:00 PM 22.9485 -109.9387 223° Southwest  Level Estimated

Login

Don't have an account? Register now (free) for customized features, flight alerts, and more!